Terminal Aerodrome Forecast
Issued by NWS Paducah, KY

Home | Current Version | Previous Version | Text Only | Print | Product List | Glossary On
Versions: 1 2 3 4 5 6 7 8 9 10 11 12 13 14 15 16 17 18 19 20
354
FTUS43 KPAH 301720
TAFEVV
TAF
KEVV 301720Z 3018/0118 15007KT P6SM -SHRA BKN006
     FM302000 16007KT P6SM SCT015 BKN030
     FM010000 16006KT P6SM VCTS BKN030CB
     FM010800 15003KT 6SM BR SCT012 BKN025
     FM011500 25004KT 6SM HZ BKN025=

USA.gov is the U.S. government's official web portal to all federal, state and local government web resources and services.